createdAt,value
2023-01-11T00:01:53.112Z,65.80
2023-01-11T00:04:20.813Z,64.62
2023-01-11T00:06:48.249Z,66.17
2023-01-11T00:09:16.077Z,66.57
2023-01-11T00:11:43.426Z,69.71
2023-01-11T00:14:10.778Z,69.51
2023-01-11T00:16:38.169Z,69.54
2023-01-11T00:19:05.476Z,68.27
2023-01-11T00:21:32.837Z,70.76
2023-01-11T00:24:00.117Z,70.88
2023-01-11T00:26:27.457Z,70.66
2023-01-11T00:28:54.866Z,71.48
2023-01-11T00:31:22.306Z,72.72
2023-01-11T00:33:49.689Z,75.27
2023-01-11T00:36:17.066Z,75.75
2023-01-11T00:38:44.340Z,75.14
2023-01-11T00:41:32.104Z,73.46
2023-01-11T00:44:18.357Z,71.70
2023-01-11T00:47:04.256Z,74.03
2023-01-11T00:49:31.671Z,71.06
2023-01-11T00:51:59.217Z,72.95
2023-01-11T00:54:26.501Z,76.33
2023-01-11T00:56:53.871Z,76.17
2023-01-11T00:59:21.161Z,73.07
2023-01-11T01:01:51.224Z,72.19
2023-01-11T01:04:18.558Z,73.14
2023-01-11T01:06:45.951Z,74.55
2023-01-11T01:09:13.196Z,73.16
2023-01-11T01:11:40.552Z,70.48
2023-01-11T01:14:26.553Z,70.34
2023-01-11T01:16:56.615Z,71.38
2023-01-11T01:19:24.186Z,74.61
2023-01-11T01:21:51.495Z,75.32
2023-01-11T01:24:18.870Z,72.70
2023-01-11T01:27:04.973Z,70.37
2023-01-11T01:29:32.236Z,70.42
2023-01-11T01:31:59.673Z,68.78
2023-01-11T01:34:27.006Z,64.56
2023-01-11T01:36:54.247Z,63.17
2023-01-11T01:39:21.523Z,64.57
2023-01-11T01:41:48.815Z,64.82
2023-01-11T01:44:53.009Z,66.51
2023-01-11T01:47:25.978Z,61.98
2023-01-11T01:49:53.547Z,65.91
2023-01-11T01:52:21.286Z,67.77
2023-01-11T01:54:49.657Z,71.62
2023-01-11T01:57:23.148Z,71.80
2023-01-11T01:59:51.964Z,72.50
2023-01-11T02:02:24.794Z,72.05
2023-01-11T02:04:55.731Z,69.77
2023-01-11T02:07:31.723Z,66.58
2023-01-11T02:10:14.010Z,63.47
2023-01-11T02:12:57.728Z,66.63
2023-01-11T02:15:29.738Z,67.71
2023-01-11T02:17:58.557Z,67.77
2023-01-11T02:20:26.033Z,70.23
2023-01-11T02:23:11.331Z,67.31
2023-01-11T02:25:45.176Z,69.57
2023-01-11T02:28:21.754Z,69.26
2023-01-11T02:30:49.082Z,70.73
2023-01-11T02:33:32.948Z,70.98
2023-01-11T02:36:17.680Z,70.38
2023-01-11T02:38:51.446Z,71.04
2023-01-11T02:42:01.648Z,72.60
2023-01-11T02:44:57.093Z,72.36
2023-01-11T02:47:41.479Z,77.10
2023-01-11T02:50:14.832Z,75.53
2023-01-11T02:52:54.185Z,77.83
2023-01-11T02:55:28.897Z,76.21
2023-01-11T02:58:00.718Z,78.54
2023-01-11T03:00:28.010Z,77.23
2023-01-11T03:03:10.498Z,77.76
2023-01-11T03:05:44.204Z,75.62
2023-01-11T03:08:30.121Z,74.80
2023-01-11T03:11:07.523Z,72.89
2023-01-11T03:13:51.665Z,73.87
2023-01-11T03:16:29.961Z,75.82
2023-01-11T03:19:12.535Z,75.11
2023-01-11T03:22:03.214Z,77.56
2023-01-11T03:24:52.797Z,76.01
2023-01-11T03:27:37.885Z,75.49
2023-01-11T03:30:33.590Z,74.04
2023-01-11T03:33:11.356Z,75.33
2023-01-11T03:35:50.923Z,76.58
2023-01-11T03:38:28.254Z,76.18
2023-01-11T03:41:04.506Z,75.66
2023-01-11T03:43:36.019Z,73.71
2023-01-11T03:46:14.931Z,73.54
2023-01-11T03:49:10.539Z,73.36
2023-01-11T03:51:43.400Z,76.14
2023-01-11T03:54:16.159Z,77.39
2023-01-11T03:56:59.246Z,77.81
2023-01-11T03:59:27.539Z,80.32
2023-01-11T04:01:56.053Z,76.92
2023-01-11T04:04:24.461Z,78.19
2023-01-11T04:06:51.941Z,76.27
2023-01-11T04:09:19.298Z,77.59
2023-01-11T04:11:46.703Z,75.10
2023-01-11T04:14:14.080Z,78.67
2023-01-11T04:16:41.592Z,75.88
2023-01-11T04:19:08.967Z,80.32
2023-01-11T04:21:36.420Z,74.65
2023-01-11T04:24:04.047Z,76.04
2023-01-11T04:26:31.652Z,77.53
2023-01-11T04:28:59.152Z,77.07
2023-01-11T04:31:27.051Z,79.18
2023-01-11T04:33:54.665Z,77.36
2023-01-11T04:36:22.280Z,76.58
2023-01-11T04:38:49.595Z,77.64
2023-01-11T04:41:35.649Z,75.64
2023-01-11T04:44:02.921Z,74.49
2023-01-11T04:46:30.409Z,78.48
2023-01-11T04:48:57.823Z,81.09
2023-01-11T04:51:25.464Z,80.84
2023-01-11T04:53:53.209Z,77.95
2023-01-11T04:56:20.516Z,76.65
2023-01-11T04:58:47.788Z,73.83
2023-01-11T05:01:18.437Z,72.73
2023-01-11T05:03:46.648Z,72.12
2023-01-11T05:06:15.396Z,71.12
2023-01-11T05:08:47.430Z,70.04
2023-01-11T05:11:16.324Z,70.02
2023-01-11T05:13:43.919Z,69.55
2023-01-11T05:16:17.954Z,68.28
2023-01-11T05:18:53.614Z,66.50
2023-01-11T05:21:23.965Z,66.86
2023-01-11T05:23:52.425Z,69.18
2023-01-11T05:26:27.391Z,69.98
2023-01-11T05:28:57.098Z,70.64
2023-01-11T05:31:25.234Z,71.31
2023-01-11T05:33:53.006Z,70.64
2023-01-11T05:36:21.654Z,72.09
2023-01-11T05:38:50.611Z,71.46
2023-01-11T05:41:19.534Z,70.99
2023-01-11T05:44:07.556Z,69.50
2023-01-11T05:46:36.842Z,72.69
2023-01-11T05:49:05.330Z,71.55
2023-01-11T05:51:33.250Z,72.71
2023-01-11T05:54:02.361Z,71.02
2023-01-11T05:56:30.293Z,71.20
2023-01-11T05:58:58.155Z,71.27
2023-01-11T06:01:26.367Z,72.06
2023-01-11T06:03:53.714Z,71.25
2023-01-11T06:06:21.774Z,73.81
2023-01-11T06:08:49.419Z,75.27
2023-01-11T06:11:16.854Z,75.98
2023-01-11T06:13:44.156Z,75.43
2023-01-11T06:16:17.513Z,78.37
2023-01-11T06:18:47.574Z,79.29
2023-01-11T06:21:16.159Z,78.21
2023-01-11T06:23:45.852Z,78.64
2023-01-11T06:26:18.780Z,79.71
2023-01-11T06:28:46.382Z,78.70
2023-01-11T06:31:16.969Z,77.28
2023-01-11T06:33:45.901Z,77.88
2023-01-11T06:36:14.345Z,77.62
2023-01-11T06:38:42.818Z,77.46
2023-01-11T06:41:11.248Z,80.85
2023-01-11T06:43:41.813Z,78.38
2023-01-11T06:46:14.920Z,78.09
2023-01-11T06:48:43.360Z,80.47
2023-01-11T06:51:12.141Z,83.64
2023-01-11T06:53:41.091Z,83.98
2023-01-11T06:56:12.641Z,82.58
2023-01-11T06:58:40.053Z,83.71
2023-01-11T07:01:07.630Z,84.46
2023-01-11T07:03:35.403Z,83.89
2023-01-11T07:06:04.421Z,84.54
2023-01-11T07:08:31.775Z,85.85
2023-01-11T07:10:59.179Z,85.71
2023-01-11T07:13:26.519Z,86.78
2023-01-11T07:15:57.331Z,86.83
2023-01-11T07:18:24.788Z,84.38
2023-01-11T07:20:52.229Z,81.60
2023-01-11T07:23:19.691Z,80.47
2023-01-11T07:25:49.488Z,80.97
2023-01-11T07:28:16.869Z,80.11
2023-01-11T07:30:57.432Z,79.15
2023-01-11T07:33:26.198Z,78.15
2023-01-11T07:35:53.910Z,77.26
2023-01-11T07:38:21.455Z,77.83
2023-01-11T07:40:48.824Z,77.13
2023-01-11T07:43:18.211Z,77.16
2023-01-11T07:45:50.457Z,77.21
2023-01-11T07:48:21.115Z,77.39
2023-01-11T07:50:48.991Z,78.29
2023-01-11T07:53:16.847Z,77.70
2023-01-11T07:55:44.594Z,76.50
2023-01-11T07:58:13.280Z,74.60
2023-01-11T08:00:41.208Z,75.43
2023-01-11T08:03:09.532Z,74.85
2023-01-11T08:05:37.349Z,73.51
2023-01-11T08:08:05.800Z,74.11
2023-01-11T08:10:34.386Z,73.30
2023-01-11T08:13:20.605Z,71.61
2023-01-11T08:15:47.998Z,71.30
2023-01-11T08:18:17.130Z,69.89
2023-01-11T08:20:45.719Z,68.79
2023-01-11T08:23:13.082Z,67.64
2023-01-11T08:25:40.498Z,67.66
2023-01-11T08:28:08.010Z,66.72
2023-01-11T08:30:36.739Z,68.40
2023-01-11T08:33:05.530Z,68.44
2023-01-11T08:35:38.164Z,68.12
2023-01-11T08:38:05.696Z,67.05
2023-01-11T08:40:33.023Z,65.29
2023-01-11T08:43:00.325Z,63.11
2023-01-11T08:45:28.092Z,63.55
2023-01-11T08:47:55.598Z,62.22
2023-01-11T08:50:23.351Z,60.77
2023-01-11T08:52:51.823Z,60.11
2023-01-11T08:55:20.075Z,60.69
2023-01-11T08:57:47.505Z,60.83
2023-01-11T09:00:15.477Z,56.95
2023-01-11T09:02:45.278Z,57.29
2023-01-11T09:05:12.784Z,56.27
2023-01-11T09:07:40.528Z,55.94
2023-01-11T09:10:08.547Z,55.38
2023-01-11T09:12:36.064Z,54.95
2023-01-11T09:15:05.977Z,53.64
2023-01-11T09:17:33.919Z,55.22
2023-01-11T09:20:01.248Z,55.35
2023-01-11T09:22:28.827Z,50.17
2023-01-11T09:24:58.969Z,51.70
2023-01-11T09:27:26.591Z,51.34
2023-01-11T09:29:53.941Z,48.28
2023-01-11T09:32:21.691Z,47.55
2023-01-11T09:34:49.796Z,44.87
2023-01-11T09:37:17.537Z,45.31
2023-01-11T09:39:45.473Z,42.79
2023-01-11T09:42:31.479Z,44.03
2023-01-11T09:45:14.353Z,43.72
2023-01-11T09:48:11.698Z,43.46
2023-01-11T09:50:47.768Z,44.21
2023-01-11T09:53:32.237Z,42.90
2023-01-11T09:56:03.751Z,43.84
2023-01-11T09:58:50.980Z,44.86
2023-01-11T10:01:39.228Z,45.86
2023-01-11T10:04:33.111Z,45.58
2023-01-11T10:07:34.693Z,44.93
2023-01-11T10:18:23.717Z,45.74
2023-01-11T10:18:33.758Z,46.81
2023-01-11T10:19:57.979Z,45.11
2023-01-11T10:22:41.020Z,43.74
2023-01-11T10:25:26.698Z,41.24
2023-01-11T10:27:58.983Z,41.84
2023-01-11T10:30:51.440Z,43.43
2023-01-11T10:33:43.591Z,42.50
2023-01-11T10:36:22.446Z,41.43
2023-01-11T10:39:27.315Z,40.81
2023-01-11T10:42:09.591Z,40.73
2023-01-11T10:45:00.388Z,41.46
2023-01-11T10:48:02.731Z,39.27
2023-01-11T10:50:38.770Z,39.33
2023-01-11T10:53:12.785Z,39.64
2023-01-11T10:55:59.232Z,40.00
2023-01-11T10:58:46.154Z,42.32
2023-01-11T11:01:39.458Z,41.94
2023-01-11T11:04:15.802Z,38.66
2023-01-11T11:07:21.279Z,38.29
2023-01-11T11:09:51.382Z,38.05
2023-01-11T11:12:24.598Z,38.63
2023-01-11T11:15:03.348Z,38.50
2023-01-11T11:17:33.335Z,38.90
2023-01-11T11:20:00.998Z,39.64
2023-01-11T11:22:28.331Z,37.10
2023-01-11T11:25:01.535Z,38.70
2023-01-11T11:27:37.905Z,38.29
2023-01-11T11:30:05.786Z,36.64
2023-01-11T11:32:36.952Z,37.27
2023-01-11T11:35:04.953Z,37.22
2023-01-11T11:37:35.373Z,37.17
2023-01-11T11:40:04.031Z,36.92
2023-01-11T11:42:31.383Z,37.02
2023-01-11T11:45:13.673Z,38.44
2023-01-11T11:47:41.220Z,37.81
2023-01-11T11:50:43.310Z,38.94
2023-01-11T11:53:22.647Z,37.62
2023-01-11T11:55:51.783Z,37.47
2023-01-11T11:58:23.863Z,38.31
2023-01-11T12:00:52.049Z,38.20
2023-01-11T12:03:22.830Z,39.55
2023-01-11T12:06:03.770Z,41.15
2023-01-11T12:08:34.669Z,41.29
2023-01-11T12:11:05.716Z,41.08
2023-01-11T12:13:38.395Z,42.92
2023-01-11T12:16:18.218Z,42.00
2023-01-11T12:18:45.928Z,43.89
2023-01-11T12:21:42.397Z,43.90
2023-01-11T12:24:18.389Z,43.63
2023-01-11T12:26:48.751Z,43.85
2023-01-11T12:29:16.087Z,44.46
2023-01-11T12:31:55.535Z,44.86
2023-01-11T12:34:37.717Z,45.58
2023-01-11T12:37:04.984Z,46.46
2023-01-11T12:39:53.246Z,45.33
2023-01-11T12:42:37.738Z,46.60
2023-01-11T12:45:16.172Z,48.43
2023-01-11T12:48:10.193Z,47.01
2023-01-11T12:51:13.358Z,47.77
2023-01-11T12:54:10.488Z,47.17
2023-01-11T12:56:56.240Z,46.96
2023-01-11T12:59:32.475Z,47.42
2023-01-11T13:02:12.732Z,48.68
2023-01-11T13:05:05.436Z,49.15
2023-01-11T13:07:43.460Z,48.12
2023-01-11T13:10:40.154Z,47.46
2023-01-11T13:13:11.711Z,45.37
2023-01-11T13:15:43.233Z,46.60
2023-01-11T13:18:42.359Z,46.90
2023-01-11T13:21:31.781Z,46.38
2023-01-11T13:24:03.832Z,47.66
2023-01-11T13:26:35.076Z,48.18
2023-01-11T13:29:14.177Z,48.39
2023-01-11T13:31:44.290Z,48.64
2023-01-11T13:34:26.959Z,48.43
2023-01-11T13:37:06.451Z,49.38
2023-01-11T13:39:43.194Z,50.82
2023-01-11T13:42:25.042Z,51.45
2023-01-11T13:45:03.228Z,50.63
2023-01-11T13:47:39.834Z,50.01
2023-01-11T13:50:22.511Z,49.47
2023-01-11T13:53:03.326Z,50.71
2023-01-11T13:55:48.292Z,50.41
2023-01-11T13:58:24.752Z,50.28
2023-01-11T14:01:03.317Z,51.19
2023-01-11T14:03:46.983Z,49.40
2023-01-11T14:06:39.928Z,48.50
2023-01-11T14:09:44.792Z,50.37
2023-01-11T14:12:16.877Z,50.09
2023-01-11T14:14:58.431Z,51.42
2023-01-11T14:17:51.838Z,54.61
2023-01-11T14:20:29.404Z,54.84
2023-01-11T14:23:17.356Z,55.17
2023-01-11T14:26:07.206Z,54.57
2023-01-11T14:28:50.533Z,53.33
2023-01-11T14:32:07.333Z,50.83
2023-01-11T14:35:19.791Z,50.65
2023-01-11T14:38:22.742Z,51.80
2023-01-11T14:41:02.085Z,52.84
2023-01-11T14:44:02.792Z,53.88
2023-01-11T14:46:33.298Z,53.59
2023-01-11T14:49:33.745Z,54.72
2023-01-11T14:52:34.413Z,54.82
2023-01-11T14:55:15.782Z,54.23
2023-01-11T14:58:01.243Z,55.83
2023-01-11T15:00:28.569Z,55.14
2023-01-11T15:03:02.009Z,55.94
2023-01-11T15:05:29.293Z,56.43
2023-01-11T15:08:23.472Z,55.87
2023-01-11T15:11:24.238Z,55.91
2023-01-11T15:14:19.174Z,56.74
2023-01-11T15:17:10.009Z,55.26
2023-01-11T15:19:41.768Z,55.87
2023-01-11T15:22:23.300Z,57.15
2023-01-11T15:25:03.205Z,58.33
2023-01-11T15:27:34.273Z,57.33
2023-01-11T15:30:02.883Z,56.93
2023-01-11T15:32:33.071Z,56.40
2023-01-11T15:35:25.153Z,57.85
2023-01-11T15:37:55.145Z,58.90
2023-01-11T15:40:26.586Z,58.61
2023-01-11T15:43:24.904Z,60.65
2023-01-11T15:46:34.909Z,60.37
2023-01-11T15:49:44.820Z,63.50
2023-01-11T15:52:33.429Z,63.61
2023-01-11T15:55:39.949Z,64.27
2023-01-11T15:58:19.522Z,64.40
2023-01-11T16:01:20.422Z,64.87
2023-01-11T16:04:01.835Z,65.99
2023-01-11T16:06:35.284Z,66.16
2023-01-11T16:09:34.163Z,66.58
2023-01-11T16:12:35.522Z,67.99
2023-01-11T16:15:09.102Z,66.60
2023-01-11T16:17:40.299Z,67.34
2023-01-11T16:20:26.244Z,68.18
2023-01-11T16:22:57.261Z,67.79
2023-01-11T16:25:30.061Z,68.35
2023-01-11T16:27:59.616Z,67.76
2023-01-11T16:30:28.170Z,67.18
2023-01-11T16:33:21.115Z,67.54
2023-01-11T16:35:49.649Z,68.91
2023-01-11T16:38:21.296Z,71.08
2023-01-11T16:40:52.758Z,71.43
2023-01-11T16:43:31.067Z,71.25
2023-01-11T16:45:58.564Z,72.30
2023-01-11T16:48:29.985Z,73.04
2023-01-11T16:51:16.371Z,74.02
2023-01-11T16:53:53.496Z,73.05
2023-01-11T16:56:23.682Z,72.32
2023-01-11T16:59:24.540Z,72.54
2023-01-11T17:01:58.872Z,72.51
2023-01-11T17:04:36.688Z,71.70
2023-01-11T17:07:20.362Z,73.02
2023-01-11T17:09:48.077Z,74.65
2023-01-11T17:12:26.373Z,77.51
2023-01-11T17:15:28.830Z,77.91
2023-01-11T17:17:56.072Z,77.47
2023-01-11T17:20:30.899Z,77.94
2023-01-11T17:22:59.089Z,78.40
2023-01-11T17:25:43.867Z,79.42
2023-01-11T17:28:18.679Z,80.08
2023-01-11T17:30:49.406Z,80.13
2023-01-11T17:33:32.387Z,81.28
2023-01-11T17:36:01.854Z,81.25
2023-01-11T17:38:30.293Z,80.85
2023-01-11T17:40:58.607Z,80.71
2023-01-11T17:43:48.486Z,80.78
2023-01-11T17:46:18.657Z,81.45
2023-01-11T17:48:58.275Z,82.20
2023-01-11T17:51:27.700Z,82.27
2023-01-11T17:53:55.194Z,81.85
2023-01-11T17:56:45.573Z,80.59
2023-01-11T17:59:18.922Z,80.19
2023-01-11T18:01:49.235Z,79.31
2023-01-11T18:04:22.017Z,77.89
2023-01-11T18:06:52.831Z,80.74
2023-01-11T18:09:24.144Z,81.03
2023-01-11T18:11:52.991Z,79.64
2023-01-11T18:14:27.826Z,79.99
2023-01-11T18:17:01.062Z,80.01
2023-01-11T18:19:42.854Z,80.68
2023-01-11T18:22:33.418Z,81.38
2023-01-11T18:25:06.022Z,80.35
2023-01-11T18:27:35.395Z,82.34
2023-01-11T18:30:07.707Z,79.15
2023-01-11T18:32:42.570Z,77.06
2023-01-11T18:35:19.940Z,77.79
2023-01-11T18:37:47.474Z,77.11
2023-01-11T18:40:16.352Z,76.76
2023-01-11T18:42:46.919Z,75.62
2023-01-11T18:45:14.746Z,74.04
2023-01-11T18:47:42.115Z,75.20
2023-01-11T18:50:14.304Z,74.13
2023-01-11T18:52:41.592Z,73.52
2023-01-11T18:55:11.435Z,75.07
2023-01-11T18:57:38.969Z,76.44
2023-01-11T19:00:06.827Z,76.75
2023-01-11T19:02:42.856Z,75.88
2023-01-11T19:05:12.628Z,77.38
2023-01-11T19:07:39.969Z,77.02
2023-01-11T19:10:08.188Z,77.18
2023-01-11T19:12:35.541Z,77.05
2023-01-11T19:15:02.869Z,75.08
2023-01-11T19:17:31.653Z,74.84
2023-01-11T19:19:59.076Z,74.36
2023-01-11T19:22:27.033Z,74.44
2023-01-11T19:24:54.918Z,74.42
2023-01-11T19:27:23.089Z,74.86
2023-01-11T19:29:51.598Z,76.14
2023-01-11T19:32:23.585Z,77.37
2023-01-11T19:34:53.432Z,78.43
2023-01-11T19:37:20.805Z,77.86
2023-01-11T19:39:48.425Z,77.17
2023-01-11T19:42:15.858Z,78.39
2023-01-11T19:44:43.166Z,78.51
2023-01-11T19:47:13.459Z,77.43
2023-01-11T19:49:42.283Z,78.58
2023-01-11T19:52:18.675Z,77.81
2023-01-11T19:54:47.287Z,78.86
2023-01-11T19:57:20.683Z,77.35
2023-01-11T19:59:49.627Z,77.28
2023-01-11T20:02:19.688Z,76.08
2023-01-11T20:04:47.505Z,76.11
2023-01-11T20:07:15.870Z,77.87
2023-01-11T20:09:43.603Z,76.58
2023-01-11T20:12:12.581Z,76.76
2023-01-11T20:14:40.744Z,74.78
2023-01-11T20:17:08.597Z,74.46
2023-01-11T20:19:36.187Z,74.56
2023-01-11T20:22:03.798Z,74.94
2023-01-11T20:24:31.448Z,76.51
2023-01-11T20:27:00.389Z,76.67
2023-01-11T20:29:27.836Z,74.83
2023-01-11T20:31:55.799Z,75.67
2023-01-11T20:34:24.034Z,77.24
2023-01-11T20:36:51.625Z,76.20
2023-01-11T20:39:19.035Z,77.27
2023-01-11T20:41:50.070Z,77.59
2023-01-11T20:44:24.394Z,78.72
2023-01-11T20:46:53.276Z,78.88
2023-01-11T20:49:23.416Z,79.21
2023-01-11T20:51:50.820Z,78.87
2023-01-11T20:54:19.172Z,78.97
2023-01-11T20:56:47.004Z,80.88
2023-01-11T20:59:17.378Z,81.41
2023-01-11T21:01:44.898Z,81.14
2023-01-11T21:04:13.645Z,80.44
2023-01-11T21:06:43.518Z,80.55
2023-01-11T21:09:14.267Z,79.48
2023-01-11T21:11:42.155Z,77.86
2023-01-11T21:14:12.139Z,77.74
2023-01-11T21:16:44.370Z,77.59
2023-01-11T21:19:14.160Z,80.08
2023-01-11T21:21:42.168Z,79.91
2023-01-11T21:24:12.531Z,78.43
2023-01-11T21:26:42.385Z,78.58
2023-01-11T21:29:11.751Z,78.33
2023-01-11T21:31:40.258Z,79.57
2023-01-11T21:34:09.696Z,80.32
2023-01-11T21:36:37.068Z,81.49
2023-01-11T21:39:04.565Z,80.34
2023-01-11T21:41:52.121Z,79.31
2023-01-11T21:44:21.319Z,77.65
2023-01-11T21:46:50.063Z,76.96
2023-01-11T21:49:17.840Z,77.71
2023-01-11T21:51:45.359Z,80.42
2023-01-11T21:54:14.652Z,80.63
2023-01-11T21:56:42.132Z,80.60
2023-01-11T21:59:10.169Z,78.79
2023-01-11T22:01:39.592Z,79.09
2023-01-11T22:04:08.992Z,78.87
2023-01-11T22:06:37.953Z,78.53
2023-01-11T22:09:06.624Z,78.10
2023-01-11T22:11:33.979Z,78.14
2023-01-11T22:14:02.846Z,78.24
2023-01-11T22:16:31.290Z,77.88
2023-01-11T22:19:00.227Z,77.04
2023-01-11T22:21:28.346Z,76.35
2023-01-11T22:23:57.684Z,76.45
2023-01-11T22:26:26.327Z,75.93
2023-01-11T22:29:13.921Z,83.44
2023-01-11T22:31:47.346Z,89.32
2023-01-11T22:34:15.318Z,93.86
2023-01-11T22:36:43.559Z,97.59
2023-01-11T22:39:12.293Z,100.00
2023-01-11T22:41:40.507Z,100.00
2023-01-11T22:44:10.219Z,100.00
2023-01-11T22:46:37.893Z,100.00
2023-01-11T22:49:08.792Z,100.00
2023-01-11T22:51:36.165Z,100.00
2023-01-11T22:54:04.431Z,100.00
2023-01-11T22:56:32.157Z,99.35
2023-01-11T22:59:00.274Z,93.16
2023-01-11T23:01:30.390Z,96.56
2023-01-11T23:03:58.590Z,96.88
2023-01-11T23:06:31.259Z,98.39
2023-01-11T23:08:59.362Z,97.76
2023-01-11T23:11:52.040Z,95.47
2023-01-11T23:14:20.139Z,92.31
2023-01-11T23:16:49.276Z,90.55
2023-01-11T23:19:18.308Z,90.84
2023-01-11T23:21:47.355Z,87.19
2023-01-11T23:24:16.442Z,88.09
2023-01-11T23:26:44.588Z,88.18
2023-01-11T23:29:12.383Z,88.09
2023-01-11T23:31:40.057Z,88.19
2023-01-11T23:34:08.527Z,89.24
2023-01-11T23:36:38.491Z,90.67
2023-01-11T23:39:07.935Z,90.96
2023-01-11T23:41:54.603Z,90.34
2023-01-11T23:44:22.890Z,86.95
2023-01-11T23:47:09.225Z,86.78
2023-01-11T23:49:36.929Z,86.83
2023-01-11T23:52:04.345Z,85.23
2023-01-11T23:54:33.306Z,84.46
2023-01-11T23:57:02.249Z,83.54
2023-01-11T23:59:29.867Z,84.83
